Time;durP1;ratioP1;P1;durP2;ratioP2;P2;SDS_P1;SDS_P2;PMS_P1;PMS_P2;Temp;Humidity;BMP_temperature;BMP_pressure;BME280_temperature;BME280_humidity;BME280_pressure;Samples;Min_cycle;Max_cycle;Signal;HPM_P1;HPM_P2
2022/01/18 00:00:04;;;;;;;29.37;11.57;;;8.70;99.90;;;;;;4954490;28;20184;-80
2022/01/18 00:02:29;;;;;;;28.20;11.13;;;8.70;99.90;;;;;;4954728;28;20181;-80
2022/01/18 00:04:55;;;;;;;24.90;11.47;;;8.90;99.90;;;;;;4937366;29;20199;-81
2022/01/18 00:07:21;;;;;;;23.53;11.23;;;8.80;99.90;;;;;;4937361;29;20176;-80
2022/01/18 00:09:46;;;;;;;30.07;14.53;;;8.90;99.90;;;;;;4946647;28;20229;-81
2022/01/18 00:15:18;;;;;;;44.00;20.07;;;9.20;99.90;;;;;;4935149;29;20576;-80
2022/01/18 00:17:52;;;;;;;30.50;12.37;;;9.10;99.90;;;;;;4935060;29;20302;-80
2022/01/18 00:20:25;;;;;;;33.77;14.40;;;9.00;99.90;;;;;;4918100;29;20197;-80
2022/01/18 00:22:50;;;;;;;24.37;12.40;;;8.90;99.90;;;;;;4918246;29;20180;-79
2022/01/18 00:25:18;;;;;;;32.50;16.23;;;8.80;99.90;;;;;;4917628;29;20699;-79
2022/01/18 00:27:43;;;;;;;29.07;13.53;;;8.90;99.90;;;;;;4935242;29;20227;-81
2022/01/18 00:30:37;;;;;;;30.90;13.40;;;8.90;99.90;;;;;;4918155;29;20189;-80
2022/01/18 00:33:13;;;;;;;30.50;12.47;;;8.90;99.90;;;;;;4934865;29;20185;-79
2022/01/18 00:35:42;;;;;;;26.37;14.07;;;8.80;99.90;;;;;;4918030;29;20632;-80
2022/01/18 00:38:16;;;;;;;35.33;14.70;;;8.80;99.90;;;;;;4934910;29;20279;-83
2022/01/18 00:40:42;;;;;;;41.40;14.27;;;8.80;99.90;;;;;;4934793;29;20178;-83
2022/01/18 00:43:07;;;;;;;37.60;14.77;;;8.80;99.90;;;;;;4935122;29;20172;-80
2022/01/18 00:45:33;;;;;;;37.97;15.27;;;8.90;99.90;;;;;;4917722;29;20231;-80
2022/01/18 00:48:00;;;;;;;29.57;14.37;;;8.80;99.90;;;;;;4935038;29;20523;-80
2022/01/18 00:50:31;;;;;;;31.50;14.50;;;8.80;99.90;;;;;;4917865;29;20186;-80
2022/01/18 00:52:57;;;;;;;37.20;15.27;;;8.80;99.90;;;;;;4917857;29;20307;-80
2022/01/18 00:55:25;;;;;;;37.20;17.20;;;9.00;99.90;;;;;;4934519;29;20245;-80
2022/01/18 00:57:51;;;;;;;34.47;14.07;;;9.00;99.90;;;;;;4917901;29;20180;-80
2022/01/18 01:00:16;;;;;;;40.77;15.17;;;8.90;99.90;;;;;;4934932;29;20200;-79
2022/01/18 01:02:42;;;;;;;37.30;14.77;;;9.10;99.90;;;;;;4934529;29;20185;-80
2022/01/18 01:05:08;;;;;;;41.70;16.70;;;9.10;99.90;;;;;;4934928;29;20317;-79
2022/01/18 01:07:37;;;;;;;32.73;13.73;;;9.10;99.90;;;;;;4934738;29;20652;-79
2022/01/18 01:10:03;;;;;;;43.57;16.27;;;9.10;99.90;;;;;;4917374;29;20186;-79
2022/01/18 01:12:29;;;;;;;33.23;15.20;;;9.00;99.90;;;;;;4934760;29;20181;-80
2022/01/18 01:15:01;;;;;;;32.37;14.63;;;9.00;99.90;;;;;;4917607;29;20184;-80
2022/01/18 01:17:41;;;;;;;43.43;16.77;;;8.90;99.90;;;;;;4917630;29;20181;-80
2022/01/18 01:36:49;;;;;;;39.43;16.37;;;9.00;99.90;;;;;;4938070;29;20175;-81
2022/01/18 01:41:47;;;;;;;42.00;15.10;;;8.90;99.90;;;;;;4920653;29;20221;-78
2022/01/18 01:44:56;;;;;;;34.30;15.83;;;9.20;99.90;;;;;;4938270;29;20251;-78
2022/01/18 01:47:32;;;;;;;32.40;14.50;;;9.20;99.90;;;;;;4920921;29;20246;-80
2022/01/18 01:49:57;;;;;;;41.43;16.00;;;9.30;99.90;;;;;;4938020;29;20178;-80
2022/01/18 01:52:23;;;;;;;44.33;17.37;;;9.40;99.90;;;;;;4937488;29;20172;-77
2022/01/18 01:54:49;;;;;;;43.70;16.67;;;9.20;99.90;;;;;;4937717;29;20705;-78
2022/01/18 01:57:15;;;;;;;46.17;17.37;;;9.30;99.90;;;;;;4937726;29;20168;-80
2022/01/18 01:59:40;;;;;;;44.87;16.93;;;9.10;99.90;;;;;;4937943;29;20203;-80
2022/01/18 02:02:06;;;;;;;49.97;19.50;;;9.30;99.90;;;;;;4937548;29;20183;-80
2022/01/18 02:04:32;;;;;;;43.83;18.07;;;9.10;99.90;;;;;;4920759;29;20193;-82
2022/01/18 02:06:58;;;;;;;47.80;18.57;;;9.00;99.90;;;;;;4936999;29;20175;-80
2022/01/18 02:09:23;;;;;;;51.70;21.47;;;9.00;99.90;;;;;;4937805;29;20184;-80
2022/01/18 02:11:50;;;;;;;45.60;19.13;;;9.00;99.90;;;;;;4937590;29;20210;-80
2022/01/18 02:14:20;;;;;;;50.53;19.53;;;8.80;99.90;;;;;;4937359;29;20658;-78
2022/01/18 02:22:14;;;;;;;51.80;17.93;;;8.90;99.90;;;;;;4937414;29;20599;-80
2022/01/18 02:24:40;;;;;;;46.80;17.10;;;8.80;99.90;;;;;;4937313;29;20196;-79
2022/01/18 02:27:05;;;;;;;50.30;18.40;;;8.80;99.90;;;;;;4937284;29;20681;-78
2022/01/18 02:29:31;;;;;;;48.73;19.43;;;8.90;99.90;;;;;;4937119;29;20179;-80
2022/01/18 02:31:57;;;;;;;40.47;16.47;;;9.10;99.90;;;;;;4936210;29;20178;-80
2022/01/18 02:34:24;;;;;;;36.50;16.67;;;9.00;99.90;;;;;;4937262;29;20178;-78
2022/01/18 02:36:50;;;;;;;46.60;17.47;;;9.00;99.90;;;;;;4936772;29;20189;-78
2022/01/18 02:39:25;;;;;;;44.93;16.63;;;9.10;99.90;;;;;;4919781;29;20686;-78
2022/01/18 02:42:07;;;;;;;54.20;23.93;;;9.00;99.90;;;;;;4919888;29;20184;-79
2022/01/18 02:44:35;;;;;;;41.87;17.37;;;9.10;99.90;;;;;;4919868;29;20192;-81
2022/01/18 02:47:01;;;;;;;61.37;28.07;;;9.10;99.90;;;;;;4936811;29;20172;-78
2022/01/18 02:49:28;;;;;;;56.90;21.33;;;9.10;99.90;;;;;;4919925;29;20276;-80
2022/01/18 02:51:56;;;;;;;44.10;19.97;;;9.10;99.90;;;;;;4919447;29;20671;-78
2022/01/18 02:54:22;;;;;;;39.93;16.37;;;9.20;99.90;;;;;;4919599;29;20211;-78
2022/01/18 02:56:53;;;;;;;46.40;16.93;;;9.30;99.90;;;;;;4936751;29;20615;-78
2022/01/18 03:04:47;;;;;;;37.23;17.47;;;9.00;99.90;;;;;;4936512;29;20222;-80
2022/01/18 03:07:14;;;;;;;45.00;17.60;;;9.00;99.90;;;;;;4936464;29;20167;-80
2022/01/18 03:09:39;;;;;;;41.73;17.60;;;9.10;99.90;;;;;;4936429;29;20656;-80
2022/01/18 03:12:07;;;;;;;47.60;18.33;;;9.20;99.90;;;;;;4936458;29;20184;-78
2022/01/18 03:14:34;;;;;;;38.07;18.33;;;9.20;99.90;;;;;;4919203;29;20182;-78
2022/01/18 03:17:00;;;;;;;49.60;18.07;;;9.20;99.90;;;;;;4936288;29;20670;-78
2022/01/18 03:19:25;;;;;;;46.83;18.50;;;9.20;99.90;;;;;;4935925;29;20220;-78
2022/01/18 03:21:55;;;;;;;46.43;18.30;;;9.20;99.90;;;;;;4936286;29;20189;-78
2022/01/18 03:29:34;;;;;;;32.03;17.67;;;8.90;99.90;;;;;;4936163;29;20204;-80
2022/01/18 03:31:59;;;;;;;37.50;16.87;;;9.00;99.90;;;;;;4935989;29;20636;-80
2022/01/18 03:34:26;;;;;;;45.33;17.27;;;9.10;99.90;;;;;;4935745;29;20186;-80
2022/01/18 03:36:52;;;;;;;42.77;17.33;;;9.10;99.90;;;;;;4936047;29;20309;-80
2022/01/18 03:39:19;;;;;;;42.50;17.43;;;9.00;99.90;;;;;;4918818;29;20728;-80
2022/01/18 03:41:51;;;;;;;42.90;17.50;;;9.00;99.90;;;;;;4936044;29;20584;-80
2022/01/18 03:44:18;;;;;;;35.50;17.20;;;9.00;99.90;;;;;;4918594;29;20560;-78
2022/01/18 03:46:44;;;;;;;40.07;16.70;;;9.10;99.90;;;;;;4935883;29;20666;-80
2022/01/18 03:49:09;;;;;;;38.13;16.57;;;9.20;99.90;;;;;;4935349;29;20207;-80
2022/01/18 03:51:35;;;;;;;43.03;18.20;;;9.20;99.90;;;;;;4918729;29;20196;-78
2022/01/18 03:54:00;;;;;;;41.23;18.27;;;9.20;99.90;;;;;;4918739;29;20697;-81
2022/01/18 03:56:27;;;;;;;41.70;17.60;;;9.20;99.90;;;;;;4935680;29;20255;-80
2022/01/18 03:58:52;;;;;;;42.20;18.07;;;9.30;99.90;;;;;;4935535;29;20792;-79
2022/01/18 04:01:19;;;;;;;47.23;17.73;;;9.20;99.90;;;;;;4935416;29;20265;-80
2022/01/18 04:03:44;;;;;;;49.27;18.23;;;9.10;99.90;;;;;;4935338;29;20191;-78
2022/01/18 04:06:10;;;;;;;43.20;18.30;;;9.10;99.90;;;;;;4918161;29;20187;-80
2022/01/18 04:08:35;;;;;;;39.17;17.63;;;9.30;99.90;;;;;;4935595;29;20267;-80
2022/01/18 04:11:01;;;;;;;46.73;17.77;;;9.10;99.90;;;;;;4935382;29;20209;-80
2022/01/18 04:13:26;;;;;;;40.17;17.50;;;8.90;99.90;;;;;;4935668;29;20184;-79
2022/01/18 04:15:52;;;;;;;43.50;16.80;;;9.00;99.90;;;;;;4935384;29;20197;-80
2022/01/18 04:18:51;;;;;;;35.97;17.27;;;8.80;99.90;;;;;;4917893;29;20211;-78
2022/01/18 04:29:11;;;;;;;46.47;19.00;;;8.90;99.90;;;;;;4935496;29;20211;-78
2022/01/18 04:31:37;;;;;;;39.67;17.23;;;8.80;99.90;;;;;;4917820;29;20175;-78
2022/01/18 04:34:03;;;;;;;43.07;17.77;;;9.00;99.90;;;;;;4935124;29;20186;-78
2022/01/18 04:36:29;;;;;;;41.00;15.73;;;8.90;99.90;;;;;;4918050;29;20585;-78
2022/01/18 04:38:55;;;;;;;51.70;15.97;;;8.70;99.90;;;;;;4935127;29;20243;-78
2022/01/18 04:41:27;;;;;;;39.90;16.73;;;8.90;99.90;;;;;;4917927;29;20172;-79
2022/01/18 04:48:24;;;;;;;40.70;16.00;;;9.00;99.90;;;;;;4918190;29;20182;-78
2022/01/18 04:49:23;;;;;;;45.53;15.33;;;8.90;99.90;;;;;;4935348;29;20239;-78
2022/01/18 04:51:48;;;;;;;43.37;15.20;;;8.80;99.90;;;;;;4934909;29;20176;-78
2022/01/18 04:54:16;;;;;;;46.77;15.63;;;9.10;99.90;;;;;;4934871;29;20370;-78
2022/01/18 04:59:10;;;;;;;44.23;16.97;;;9.10;99.90;;;;;;4938862;29;20261;-78
2022/01/18 05:01:38;;;;;;;40.87;15.57;;;9.20;99.90;;;;;;4938503;29;20262;-79
2022/01/18 05:04:04;;;;;;;40.47;16.93;;;9.20;99.90;;;;;;4938724;29;20175;-79
2022/01/18 05:06:30;;;;;;;40.80;15.47;;;9.00;99.90;;;;;;4938580;29;20182;-78
2022/01/18 05:08:56;;;;;;;35.97;15.27;;;8.80;99.90;;;;;;4938699;29;20174;-79
2022/01/18 05:11:25;;;;;;;42.53;14.97;;;8.90;99.90;;;;;;4938490;29;20182;-78
2022/01/18 05:24:24;;;;;;;54.17;24.40;;;8.60;99.90;;;;;;4908225;29;20208;-79
2022/01/18 05:26:51;;;;;;;68.63;34.27;;;8.60;99.90;;;;;;4938215;29;20187;-79
2022/01/18 05:29:16;;;;;;;54.47;25.00;;;8.50;99.90;;;;;;4920698;29;20186;-79
2022/01/18 05:31:43;;;;;;;38.87;18.90;;;8.60;99.90;;;;;;4938218;29;20172;-78
2022/01/18 05:34:08;;;;;;;40.30;16.77;;;8.70;99.90;;;;;;4938375;29;20175;-78
2022/01/18 05:36:34;;;;;;;42.10;15.37;;;8.60;99.90;;;;;;4936812;29;20668;-78
2022/01/18 05:39:00;;;;;;;37.23;14.10;;;8.70;99.90;;;;;;4938024;29;20207;-79
2022/01/18 05:41:25;;;;;;;42.83;15.73;;;8.60;99.90;;;;;;4920828;29;20184;-78
2022/01/18 05:43:51;;;;;;;39.83;15.07;;;8.60;99.90;;;;;;4937835;29;20516;-80
2022/01/18 05:46:16;;;;;;;46.80;15.77;;;8.60;99.90;;;;;;4920981;29;20652;-78
2022/01/18 05:48:42;;;;;;;37.67;14.97;;;8.50;99.90;;;;;;4920696;29;20265;-78
2022/01/18 05:51:08;;;;;;;41.17;14.57;;;8.50;99.90;;;;;;4920766;29;20170;-78
2022/01/18 05:53:35;;;;;;;36.43;14.50;;;8.40;99.90;;;;;;4920753;29;20176;-79
2022/01/18 05:56:06;;;;;;;42.63;14.97;;;8.50;99.90;;;;;;4937785;29;20219;-79
2022/01/18 05:58:32;;;;;;;41.40;14.77;;;8.70;99.90;;;;;;4937347;29;20207;-78
2022/01/18 06:00:58;;;;;;;60.10;20.60;;;8.90;99.90;;;;;;4920527;29;20195;-78
2022/01/18 06:03:34;;;;;;;49.20;16.77;;;8.70;99.90;;;;;;4937614;29;20183;-79
2022/01/18 06:08:44;;;;;;;44.57;16.97;;;8.70;99.90;;;;;;4937742;29;20283;-78
2022/01/18 06:11:10;;;;;;;50.30;17.23;;;8.90;99.90;;;;;;4937424;29;20254;-79
2022/01/18 06:13:36;;;;;;;38.27;16.03;;;8.90;99.90;;;;;;4947517;29;20228;-78
2022/01/18 06:16:02;;;;;;;49.17;17.47;;;8.80;99.90;;;;;;4956606;29;20203;-78
2022/01/18 06:18:27;;;;;;;44.10;16.80;;;8.60;99.90;;;;;;4939354;29;20215;-78
2022/01/18 06:20:53;;;;;;;41.03;15.50;;;8.50;99.90;;;;;;4939605;29;20188;-79
2022/01/18 06:23:20;;;;;;;37.43;14.80;;;8.40;99.90;;;;;;4938545;28;20607;-78
2022/01/18 06:25:45;;;;;;;37.80;14.23;;;8.40;99.90;;;;;;4939031;29;20215;-79
2022/01/18 06:28:11;;;;;;;35.87;14.00;;;8.40;99.90;;;;;;4956121;28;20687;-79
2022/01/18 06:30:37;;;;;;;35.93;14.80;;;8.40;99.90;;;;;;4943358;29;20197;-78
2022/01/18 06:33:02;;;;;;;32.30;14.00;;;8.40;99.90;;;;;;4946946;28;20275;-77
2022/01/18 06:35:28;;;;;;;32.33;13.97;;;8.30;99.90;;;;;;4954888;29;20199;-78
2022/01/18 06:37:54;;;;;;;32.70;13.90;;;8.40;99.90;;;;;;4954687;29;20183;-77
2022/01/18 06:40:20;;;;;;;34.60;13.67;;;8.50;99.90;;;;;;4954797;29;20235;-78
2022/01/18 06:42:45;;;;;;;34.73;14.83;;;8.40;99.90;;;;;;4954441;29;20191;-79
2022/01/18 06:45:11;;;;;;;33.80;14.87;;;8.60;99.90;;;;;;4955639;28;20632;-78
2022/01/18 06:47:38;;;;;;;34.87;14.50;;;8.50;99.90;;;;;;4954498;29;20242;-78
2022/01/18 06:50:06;;;;;;;38.07;15.53;;;8.40;99.90;;;;;;4954409;29;20258;-79
2022/01/18 06:52:31;;;;;;;41.87;16.80;;;8.50;99.90;;;;;;4955734;28;20509;-79
2022/01/18 06:54:57;;;;;;;36.97;15.07;;;8.70;99.90;;;;;;4955638;28;20694;-78
2022/01/18 06:57:23;;;;;;;42.83;16.23;;;8.60;99.90;;;;;;4953887;28;20612;-78
2022/01/18 06:59:49;;;;;;;42.37;16.23;;;8.60;99.90;;;;;;4955584;29;20262;-78
2022/01/18 07:02:14;;;;;;;47.93;17.37;;;8.90;99.90;;;;;;4937698;29;20178;-79
2022/01/18 08:31:42;;;;;;;39.17;13.40;;;8.60;99.90;;;;;;4958378;23;20236;-85
2022/01/18 08:34:08;;;;;;;43.27;13.27;;;8.80;99.90;;;;;;4934213;29;20191;-85
2022/01/18 08:36:34;;;;;;;44.60;13.83;;;8.90;99.90;;;;;;4936924;29;20706;-85
2022/01/18 08:39:00;;;;;;;46.60;14.07;;;9.00;99.90;;;;;;4937387;29;20219;-85
2022/01/18 08:41:26;;;;;;;43.17;13.40;;;8.90;99.90;;;;;;4937838;29;20186;-86
2022/01/18 08:43:53;;;;;;;44.73;13.60;;;8.90;99.90;;;;;;4951812;28;20546;-84
2022/01/18 08:46:19;;;;;;;44.93;13.50;;;9.10;99.90;;;;;;4957249;28;20178;-86
2022/01/18 08:48:45;;;;;;;48.87;14.33;;;9.00;99.90;;;;;;4974408;28;20178;-87
2022/01/18 08:51:11;;;;;;;44.27;13.77;;;9.00;99.90;;;;;;4956414;28;20553;-84
2022/01/18 08:53:37;;;;;;;50.93;14.77;;;8.90;99.90;;;;;;4957259;28;20209;-85
2022/01/18 08:56:04;;;;;;;55.97;14.27;;;8.80;99.90;;;;;;4957642;28;20184;-86
2022/01/18 08:58:31;;;;;;;47.93;13.37;;;8.90;99.90;;;;;;4956899;28;20218;-86
2022/01/18 09:00:58;;;;;;;44.10;13.07;;;9.10;99.90;;;;;;4945915;29;20666;-86
2022/01/18 09:03:23;;;;;;;47.00;15.57;;;9.20;99.90;;;;;;4937985;29;20187;-87
2022/01/18 09:05:50;;;;;;;44.77;15.33;;;9.30;99.90;;;;;;4937383;29;20183;-87
2022/01/18 09:08:18;;;;;;;40.60;15.37;;;9.20;99.90;;;;;;4954740;29;20179;-87
2022/01/18 09:10:46;;;;;;;49.17;15.60;;;9.30;99.90;;;;;;4937801;29;20194;-86
2022/01/18 09:13:15;;;;;;;51.70;16.33;;;9.50;99.90;;;;;;4937063;29;20184;-86
2022/01/18 09:15:42;;;;;;;48.00;15.30;;;9.70;99.90;;;;;;4937626;29;20516;-86
2022/01/18 09:18:08;;;;;;;46.70;16.33;;;9.70;99.90;;;;;;4937300;29;20180;-86
2022/01/18 09:20:34;;;;;;;56.23;16.43;;;9.50;99.90;;;;;;4937750;29;20190;-84
2022/01/18 09:23:00;;;;;;;53.57;16.30;;;9.40;99.90;;;;;;4937376;29;20663;-84
2022/01/18 09:25:28;;;;;;;51.73;16.47;;;9.30;99.90;;;;;;4937419;29;20187;-84
2022/01/18 09:27:55;;;;;;;43.63;16.07;;;9.20;99.90;;;;;;4937575;29;20655;-84
2022/01/18 09:30:22;;;;;;;43.27;15.23;;;9.20;99.90;;;;;;4937370;29;20195;-84
2022/01/18 09:32:49;;;;;;;39.70;14.67;;;9.20;99.90;;;;;;4937310;29;20185;-84
2022/01/18 09:35:15;;;;;;;43.20;15.77;;;9.30;99.90;;;;;;4937514;29;20655;-84
2022/01/18 09:37:43;;;;;;;52.63;17.33;;;9.40;99.90;;;;;;4937153;29;20210;-84
2022/01/18 09:40:10;;;;;;;40.50;16.00;;;9.50;99.90;;;;;;4937452;28;20297;-84
2022/01/18 09:42:40;;;;;;;50.37;16.93;;;9.50;99.90;;;;;;4940787;29;20664;-84
2022/01/18 09:45:11;;;;;;;51.57;17.20;;;9.50;99.90;;;;;;4941047;29;20265;-84
2022/01/18 09:47:41;;;;;;;44.60;17.30;;;9.70;99.90;;;;;;4940858;29;20175;-84
2022/01/18 09:50:10;;;;;;;47.90;16.37;;;9.80;99.90;;;;;;4941155;29;20179;-84
2022/01/18 09:52:36;;;;;;;47.87;17.40;;;10.00;99.90;;;;;;4940343;29;20198;-84
2022/01/18 09:55:05;;;;;;;43.97;16.60;;;9.90;99.90;;;;;;4940831;29;20196;-84
2022/01/18 10:16:26;;;;;;;41.40;15.87;;;10.30;99.90;;;;;;5088384;23;20460;-87
2022/01/18 10:19:02;;;;;;;38.80;15.07;;;10.50;99.90;;;;;;4940320;29;20226;-87
2022/01/18 10:21:33;;;;;;;50.60;16.33;;;10.50;99.90;;;;;;4940102;29;20183;-85
2022/01/18 10:24:16;;;;;;;40.10;15.87;;;10.70;99.90;;;;;;4957353;29;20168;-86
2022/01/18 10:26:44;;;;;;;39.10;16.87;;;10.80;99.90;;;;;;4957477;29;20183;-86
2022/01/18 10:29:12;;;;;;;38.90;14.40;;;10.90;99.90;;;;;;4940092;29;20695;-89
2022/01/18 10:31:45;;;;;;;39.03;15.93;;;10.80;99.90;;;;;;4940122;29;20184;-87
2022/01/18 10:34:24;;;;;;;37.20;15.07;;;10.70;99.90;;;;;;4940002;29;20635;-85
2022/01/18 10:37:01;;;;;;;38.83;15.07;;;10.70;99.90;;;;;;4939850;29;20662;-85
2022/01/18 10:39:35;;;;;;;31.63;13.00;;;10.80;99.90;;;;;;4939886;29;20219;-86
2022/01/18 10:42:29;;;;;;;33.43;13.53;;;10.70;99.90;;;;;;4935714;29;20187;-86
2022/01/18 10:45:08;;;;;;;33.37;12.90;;;10.70;99.90;;;;;;4957017;29;20215;-86
2022/01/18 10:47:34;;;;;;;31.80;11.60;;;10.90;99.90;;;;;;4956920;29;20268;-86
2022/01/18 10:50:15;;;;;;;32.43;12.07;;;10.80;99.90;;;;;;4939562;29;20238;-85
2022/01/18 10:52:42;;;;;;;30.30;11.77;;;10.80;99.90;;;;;;4939232;29;20174;-87
2022/01/18 10:55:18;;;;;;;30.40;11.97;;;10.90;99.90;;;;;;4956559;29;20206;-86
2022/01/18 10:57:45;;;;;;;33.27;11.60;;;10.80;99.90;;;;;;4956632;29;20201;-87
2022/01/18 11:00:21;;;;;;;24.77;11.10;;;10.70;99.90;;;;;;4956620;29;20211;-86
2022/01/18 11:02:52;;;;;;;31.30;11.10;;;11.00;99.90;;;;;;4939356;29;20186;-86
2022/01/18 11:05:26;;;;;;;31.30;12.93;;;11.00;99.90;;;;;;4939587;29;20183;-85
2022/01/18 11:07:54;;;;;;;28.37;11.63;;;11.10;99.90;;;;;;4939821;29;20183;-87
2022/01/18 11:10:23;;;;;;;27.77;11.90;;;11.10;99.90;;;;;;4939322;29;20294;-86
2022/01/18 11:13:02;;;;;;;28.50;10.47;;;11.00;99.90;;;;;;4939437;29;20171;-87
2022/01/18 11:15:29;;;;;;;22.63;10.17;;;11.10;99.90;;;;;;4939183;29;20195;-86
2022/01/18 11:18:01;;;;;;;29.10;10.70;;;11.10;99.90;;;;;;4939104;29;20187;-87
2022/01/18 11:20:30;;;;;;;27.80;10.53;;;11.10;99.90;;;;;;4939043;29;20253;-87
2022/01/18 11:22:56;;;;;;;28.63;8.80;;;11.40;99.90;;;;;;4939239;29;20183;-86
2022/01/18 11:25:22;;;;;;;17.10;7.23;;;11.30;99.90;;;;;;4939036;29;20282;-86
2022/01/18 11:27:51;;;;;;;19.37;7.67;;;11.30;99.90;;;;;;4939106;29;20210;-87
2022/01/18 11:30:20;;;;;;;20.80;7.47;;;11.30;99.90;;;;;;4938861;29;20190;-88
2022/01/18 11:32:46;;;;;;;13.70;4.73;;;11.30;99.90;;;;;;4938824;29;20183;-87
2022/01/18 11:35:25;;;;;;;11.50;4.90;;;11.40;99.90;;;;;;4956170;29;20171;-87
2022/01/18 11:38:09;;;;;;;13.47;5.23;;;11.80;99.90;;;;;;4938738;29;20186;-86
2022/01/18 11:40:50;;;;;;;8.17;3.13;;;12.20;99.90;;;;;;4955820;29;20210;-86
2022/01/18 11:43:34;;;;;;;20.83;12.77;;;12.40;99.90;;;;;;4938905;29;20179;-86
2022/01/18 11:46:18;;;;;;;11.93;3.50;;;12.60;99.90;;;;;;4938560;29;20283;-87
2022/01/18 11:48:45;;;;;;;11.47;3.17;;;13.00;99.90;;;;;;4938736;29;20716;-87
2022/01/18 11:51:16;;;;;;;16.30;5.80;;;13.20;99.90;;;;;;4938661;29;20201;-88
2022/01/18 11:53:46;;;;;;;9.93;2.80;;;13.50;99.90;;;;;;4955753;29;20196;-86
2022/01/18 11:56:36;;;;;;;9.60;2.67;;;13.60;99.90;;;;;;4938706;29;20188;-87
2022/01/18 11:59:16;;;;;;;9.83;3.93;;;14.20;99.90;;;;;;4950383;29;20222;-87
2022/01/18 12:01:54;;;;;;;10.67;5.40;;;15.40;99.90;;;;;;4938021;29;20637;-87
2022/01/18 12:04:42;;;;;;;20.30;12.43;;;16.50;99.20;;;;;;4954668;28;20172;-87
2022/01/18 12:07:33;;;;;;;31.87;21.30;;;17.30;96.90;;;;;;4938496;29;20187;-87
2022/01/18 12:10:01;;;;;;;10.57;3.00;;;17.10;96.70;;;;;;4938131;29;20195;-87
2022/01/18 12:15:16;;;;;;;12.63;2.10;;;16.20;96.50;;;;;;4955265;29;20218;-87
2022/01/18 12:17:57;;;;;;;9.53;1.77;;;15.60;97.50;;;;;;4955376;29;20181;-87
2022/01/18 12:20:32;;;;;;;7.23;1.83;;;15.20;98.50;;;;;;4938129;29;20271;-88
2022/01/18 12:23:09;;;;;;;7.83;2.00;;;14.90;98.90;;;;;;4938447;29;20275;-86
2022/01/18 12:26:02;;;;;;;4.03;1.73;;;14.80;99.10;;;;;;4955585;29;20183;-87
2022/01/18 12:34:29;;;;;;;9.77;3.37;;;14.20;99.20;;;;;;4955540;29;20198;-86
2022/01/18 12:37:08;;;;;;;10.27;2.10;;;14.20;99.10;;;;;;4955113;29;20183;-87
2022/01/18 12:40:05;;;;;;;12.57;3.20;;;14.00;99.70;;;;;;4955004;29;20251;-87
2022/01/18 12:45:05;;;;;;;20.43;7.53;;;13.70;99.90;;;;;;4954780;29;20257;-88
2022/01/18 12:47:35;;;;;;;15.23;4.53;;;13.40;99.90;;;;;;4937901;29;20182;-88
2022/01/18 12:50:05;;;;;;;8.47;2.17;;;13.60;99.90;;;;;;4937975;29;20232;-87
2022/01/18 12:52:51;;;;;;;9.93;1.93;;;13.70;99.90;;;;;;4937742;29;20673;-87
2022/01/18 12:55:32;;;;;;;10.77;3.33;;;13.80;99.90;;;;;;4938106;29;20213;-86
2022/01/18 12:58:00;;;;;;;10.50;2.30;;;14.00;99.90;;;;;;4938015;29;20276;-86
2022/01/18 13:00:26;;;;;;;12.40;2.40;;;13.80;99.90;;;;;;4937806;29;20225;-87
2022/01/18 13:02:56;;;;;;;10.63;2.13;;;13.60;99.90;;;;;;4937784;29;20263;-86
2022/01/18 13:05:31;;;;;;;9.90;2.60;;;13.70;99.90;;;;;;4938110;29;20189;-86
2022/01/18 13:07:56;;;;;;;17.40;4.63;;;13.50;99.90;;;;;;4937700;29;20234;-88
2022/01/18 13:10:38;;;;;;;17.70;5.30;;;13.30;99.90;;;;;;4954998;29;20181;-88
2022/01/18 13:13:04;;;;;;;8.57;2.00;;;13.30;99.90;;;;;;4937782;29;20221;-88
2022/01/18 13:22:56;;;;;;;10.33;2.20;;;13.60;99.90;;;;;;4937758;29;20243;-86
2022/01/18 13:26:47;;;;;;;6.93;2.40;;;13.60;99.90;;;;;;4958646;29;20185;-87
2022/01/18 13:29:20;;;;;;;9.87;2.30;;;13.50;99.90;;;;;;4958176;29;20182;-86
2022/01/18 13:31:58;;;;;;;8.43;2.57;;;13.60;99.90;;;;;;4941172;29;20221;-87
2022/01/18 13:34:36;;;;;;;10.63;3.17;;;13.90;99.90;;;;;;4941069;29;20205;-87
2022/01/18 13:37:05;;;;;;;11.17;3.37;;;13.70;99.90;;;;;;4958160;29;20186;-87
2022/01/18 13:39:39;;;;;;;6.07;2.10;;;13.70;99.90;;;;;;4941036;29;20233;-87
2022/01/18 13:42:05;;;;;;;13.00;3.23;;;13.50;99.90;;;;;;4958157;29;20697;-87
2022/01/18 13:44:32;;;;;;;11.87;3.77;;;13.60;99.90;;;;;;4940685;29;20205;-86
2022/01/18 13:47:14;;;;;;;9.33;2.57;;;13.40;99.90;;;;;;4957996;29;20193;-87
2022/01/18 13:49:40;;;;;;;15.33;3.40;;;13.30;99.90;;;;;;4957846;29;20627;-87
2022/01/18 13:52:09;;;;;;;11.40;3.10;;;13.20;99.90;;;;;;4957953;29;20239;-86
2022/01/18 13:54:49;;;;;;;11.80;3.57;;;13.20;99.90;;;;;;4940831;29;20217;-86
2022/01/18 13:57:15;;;;;;;9.27;3.40;;;13.10;99.90;;;;;;4957673;29;20181;-87
2022/01/18 13:59:41;;;;;;;9.77;3.13;;;13.00;99.90;;;;;;4940870;29;20228;-88
2022/01/18 14:02:18;;;;;;;15.37;3.27;;;12.90;99.90;;;;;;4957900;29;20182;-88
2022/01/18 14:04:45;;;;;;;11.97;3.27;;;12.90;99.90;;;;;;4957575;29;20238;-87
2022/01/18 14:07:11;;;;;;;11.07;3.03;;;12.90;99.90;;;;;;4957448;29;20211;-85
2022/01/18 14:09:38;;;;;;;12.87;3.80;;;13.00;99.90;;;;;;4940282;29;20213;-87
2022/01/18 14:12:05;;;;;;;11.47;2.83;;;13.00;99.90;;;;;;4940218;29;20189;-87
2022/01/18 14:14:34;;;;;;;8.97;2.67;;;13.00;99.90;;;;;;4940065;29;20197;-87
2022/01/18 14:17:05;;;;;;;11.67;2.83;;;13.10;99.90;;;;;;4940589;29;20193;-88
2022/01/18 14:19:34;;;;;;;13.77;2.43;;;13.00;99.90;;;;;;4957444;29;20223;-87
2022/01/18 14:22:18;;;;;;;15.00;6.63;;;13.10;99.90;;;;;;4940410;29;20218;-87
2022/01/18 14:24:46;;;;;;;11.90;3.50;;;13.30;99.90;;;;;;4940162;29;20204;-89
2022/01/18 14:27:34;;;;;;;7.93;2.60;;;13.30;99.90;;;;;;4939029;29;20637;-86
2022/01/18 14:30:04;;;;;;;9.50;2.87;;;13.10;99.90;;;;;;4933119;29;20197;-88
2022/01/18 14:32:34;;;;;;;12.00;2.93;;;12.80;99.90;;;;;;4940739;29;20600;-88
2022/01/18 14:35:09;;;;;;;13.03;2.73;;;12.70;99.90;;;;;;4940233;29;20216;-87
2022/01/18 14:38:14;;;;;;;11.13;3.40;;;12.70;99.90;;;;;;4940356;29;20244;-87
2022/01/18 14:40:42;;;;;;;15.20;4.87;;;12.90;99.90;;;;;;4937519;29;20648;-86
2022/01/18 14:43:12;;;;;;;14.17;4.47;;;12.90;99.90;;;;;;4939854;29;20239;-87
2022/01/18 14:48:31;;;;;;;14.83;4.40;;;12.70;99.90;;;;;;4957255;29;20272;-87
2022/01/18 14:50:58;;;;;;;14.27;4.20;;;12.50;99.90;;;;;;4939920;29;20201;-86
2022/01/18 14:53:27;;;;;;;11.33;4.03;;;12.20;99.90;;;;;;4939960;29;20289;-87
2022/01/18 14:55:54;;;;;;;16.40;4.90;;;12.10;99.90;;;;;;4939427;29;20599;-87
2022/01/18 14:58:20;;;;;;;11.93;4.23;;;12.10;99.90;;;;;;4939491;29;20184;-87
2022/01/18 15:00:46;;;;;;;12.30;4.60;;;12.00;99.90;;;;;;4939971;29;20191;-89
2022/01/18 15:03:12;;;;;;;15.00;4.80;;;11.80;99.90;;;;;;4939811;29;20227;-86
2022/01/18 15:05:39;;;;;;;13.63;4.80;;;11.80;99.90;;;;;;4939854;29;20171;-85
2022/01/18 15:08:05;;;;;;;12.00;4.77;;;11.60;99.90;;;;;;4939584;29;20179;-88
2022/01/18 15:10:32;;;;;;;11.80;4.80;;;11.50;99.90;;;;;;4939145;29;20176;-86
2022/01/18 15:12:58;;;;;;;13.73;4.80;;;11.60;99.90;;;;;;4956414;29;20211;-87
2022/01/18 15:15:27;;;;;;;15.63;5.00;;;11.70;99.90;;;;;;4939015;29;20200;-86
2022/01/18 15:17:54;;;;;;;9.67;4.40;;;11.60;99.90;;;;;;4939355;29;20667;-85
2022/01/18 15:20:20;;;;;;;11.93;4.50;;;11.50;99.90;;;;;;4939181;29;20227;-86
2022/01/18 15:22:47;;;;;;;21.80;6.73;;;11.40;99.90;;;;;;4939373;29;20187;-87
2022/01/18 15:25:13;;;;;;;11.53;4.97;;;11.40;99.90;;;;;;4938511;29;20187;-86
2022/01/18 15:27:39;;;;;;;13.03;4.93;;;11.40;99.90;;;;;;4939168;29;20181;-86
2022/01/18 15:30:08;;;;;;;17.07;5.77;;;11.40;99.90;;;;;;4956124;29;20262;-87
2022/01/18 15:32:35;;;;;;;17.83;5.10;;;11.40;99.90;;;;;;4939240;29;20190;-88
2022/01/18 15:35:01;;;;;;;12.83;5.30;;;11.30;99.90;;;;;;4955988;29;20171;-87
2022/01/18 15:37:27;;;;;;;16.37;5.60;;;11.30;99.90;;;;;;4938758;29;20586;-85
2022/01/18 15:39:54;;;;;;;17.10;6.30;;;11.10;99.90;;;;;;4938498;29;20219;-86
2022/01/18 15:42:20;;;;;;;15.63;5.73;;;11.20;99.90;;;;;;4938885;29;20238;-85
2022/01/18 15:44:46;;;;;;;14.13;4.47;;;11.10;99.90;;;;;;4938780;29;20201;-86
2022/01/18 15:47:13;;;;;;;13.10;4.90;;;10.90;99.90;;;;;;4938681;29;20210;-87
2022/01/18 15:49:40;;;;;;;21.00;5.07;;;10.90;99.90;;;;;;4938693;29;20183;-86
2022/01/18 15:52:06;;;;;;;14.47;5.43;;;10.90;99.90;;;;;;4938705;29;20190;-88
2022/01/18 15:54:32;;;;;;;15.47;5.00;;;10.80;99.90;;;;;;4955107;29;20688;-89
2022/01/18 15:56:58;;;;;;;15.80;4.83;;;10.60;99.90;;;;;;4938702;29;20270;-86
2022/01/18 15:59:23;;;;;;;15.87;5.20;;;10.50;99.90;;;;;;4938509;29;20586;-87